createdAt,value
2019-02-26T00:01:34.881Z,33.50
2019-02-26T00:04:01.563Z,33.75
2019-02-26T00:06:30.121Z,30.40
2019-02-26T00:08:59.552Z,28.92
2019-02-26T00:11:26.722Z,30.08
2019-02-26T00:13:55.102Z,27.35
2019-02-26T00:16:22.782Z,25.17
2019-02-26T00:18:49.436Z,29.37
2019-02-26T00:21:16.432Z,32.67
2019-02-26T00:23:44.463Z,28.07
2019-02-26T00:26:12.813Z,29.25
2019-02-26T00:28:41.599Z,29.30
2019-02-26T00:31:08.932Z,29.67
2019-02-26T00:33:35.620Z,30.68
2019-02-26T00:36:04.343Z,29.70
2019-02-26T00:38:32.902Z,32.35
2019-02-26T00:41:01.758Z,31.65
2019-02-26T00:43:30.181Z,30.88
2019-02-26T00:45:58.343Z,36.30
2019-02-26T00:48:25.636Z,36.95
2019-02-26T00:50:54.299Z,31.33
2019-02-26T00:53:21.741Z,32.00
2019-02-26T00:55:51.590Z,31.60
2019-02-26T00:58:18.226Z,30.20
2019-02-26T01:00:44.864Z,34.63
2019-02-26T01:03:13.688Z,29.90
2019-02-26T01:05:41.016Z,32.15
2019-02-26T01:08:12.775Z,32.13
2019-02-26T01:10:39.297Z,32.13
2019-02-26T01:13:07.260Z,31.52
2019-02-26T01:15:34.178Z,28.73
2019-02-26T01:18:02.820Z,30.55
2019-02-26T01:20:31.798Z,28.70
2019-02-26T01:22:58.276Z,30.95
2019-02-26T01:25:24.945Z,31.60
2019-02-26T01:27:53.178Z,34.30
2019-02-26T01:30:23.632Z,31.95
2019-02-26T01:32:48.835Z,26.55
2019-02-26T01:35:15.592Z,30.25
2019-02-26T01:37:42.273Z,29.45
2019-02-26T01:40:12.904Z,30.68
2019-02-26T01:42:38.125Z,28.90
2019-02-26T01:45:05.779Z,26.97
2019-02-26T01:47:32.435Z,30.92
2019-02-26T01:49:59.457Z,29.35
2019-02-26T01:52:26.162Z,26.30
2019-02-26T01:54:53.512Z,26.97
2019-02-26T01:57:21.590Z,27.85
2019-02-26T01:59:50.135Z,31.60
2019-02-26T02:02:18.133Z,27.02
2019-02-26T02:04:45.535Z,24.75
2019-02-26T02:07:12.185Z,26.05
2019-02-26T02:09:39.004Z,27.05
2019-02-26T02:12:07.131Z,25.82
2019-02-26T02:14:34.354Z,31.97
2019-02-26T02:17:01.677Z,25.25
2019-02-26T02:19:30.936Z,25.30
2019-02-26T02:21:58.614Z,30.23
2019-02-26T02:24:25.283Z,24.57
2019-02-26T02:26:53.527Z,24.18
2019-02-26T02:29:21.655Z,30.12
2019-02-26T02:31:49.198Z,25.30
2019-02-26T02:34:15.893Z,24.55
2019-02-26T02:36:42.629Z,27.42
2019-02-26T02:39:12.926Z,26.12
2019-02-26T02:41:39.262Z,26.52
2019-02-26T02:44:06.633Z,26.42
2019-02-26T02:46:34.135Z,25.95
2019-02-26T02:49:02.295Z,26.65
2019-02-26T02:51:31.486Z,27.65
2019-02-26T02:53:59.384Z,26.17
2019-02-26T02:56:26.112Z,30.97
2019-02-26T02:58:52.862Z,31.68
2019-02-26T03:01:22.283Z,25.05
2019-02-26T03:03:50.275Z,27.27
2019-02-26T03:06:16.859Z,26.35
2019-02-26T03:08:45.286Z,22.35
2019-02-26T03:11:12.148Z,23.20
2019-02-26T03:13:40.410Z,28.30
2019-02-26T03:16:07.389Z,26.12
2019-02-26T03:18:34.087Z,27.65
2019-02-26T03:21:02.474Z,28.50
2019-02-26T03:23:30.843Z,23.02
2019-02-26T03:25:58.145Z,31.82
2019-02-26T03:28:24.798Z,23.20
2019-02-26T03:30:51.547Z,25.75
2019-02-26T03:33:18.233Z,25.50
2019-02-26T03:35:44.894Z,23.12
2019-02-26T03:38:11.695Z,26.02
2019-02-26T03:40:38.403Z,26.68
2019-02-26T03:43:07.466Z,22.22
2019-02-26T03:45:33.621Z,28.85
2019-02-26T03:48:00.324Z,31.60
2019-02-26T03:50:27.255Z,28.30
2019-02-26T03:52:54.042Z,28.77
2019-02-26T03:55:20.693Z,27.60
2019-02-26T03:57:50.380Z,26.05
2019-02-26T04:00:17.436Z,23.30
2019-02-26T04:02:47.719Z,25.17
2019-02-26T04:05:13.368Z,25.70
2019-02-26T04:07:40.083Z,28.10
2019-02-26T04:10:07.345Z,33.23
2019-02-26T04:12:39.250Z,33.58
2019-02-26T04:15:02.945Z,30.82
2019-02-26T04:17:30.753Z,26.00
2019-02-26T04:19:58.096Z,29.10
2019-02-26T04:22:34.188Z,28.70
2019-02-26T04:25:08.314Z,28.60
2019-02-26T04:28:14.931Z,24.55
2019-02-26T04:31:28.628Z,28.10
2019-02-26T04:34:08.642Z,28.67
2019-02-26T04:37:42.107Z,30.95
2019-02-26T04:40:32.930Z,33.55
2019-02-26T04:43:34.105Z,29.75
2019-02-26T04:46:51.478Z,34.43
2019-02-26T04:49:19.844Z,29.02
2019-02-26T04:51:48.399Z,27.27
2019-02-26T04:54:21.178Z,29.27
2019-02-26T04:56:45.106Z,28.20
2019-02-26T04:59:14.486Z,26.85
2019-02-26T05:01:40.930Z,30.60
2019-02-26T05:04:07.689Z,26.15
2019-02-26T05:06:34.344Z,27.95
2019-02-26T05:09:02.838Z,33.92
2019-02-26T05:11:32.409Z,29.45
2019-02-26T05:13:58.238Z,37.60
2019-02-26T05:16:26.662Z,30.17
2019-02-26T05:18:54.927Z,28.42
2019-02-26T05:21:24.392Z,35.50
2019-02-26T05:23:52.399Z,33.95
2019-02-26T05:26:20.824Z,35.13
2019-02-26T05:28:49.689Z,32.08
2019-02-26T05:31:17.489Z,33.00
2019-02-26T05:33:46.335Z,33.53
2019-02-26T05:36:15.020Z,32.33
2019-02-26T05:38:41.522Z,26.50
2019-02-26T05:41:08.206Z,31.37
2019-02-26T05:43:34.924Z,33.73
2019-02-26T05:46:03.985Z,34.10
2019-02-26T05:48:30.462Z,35.40
2019-02-26T05:50:58.042Z,38.05
2019-02-26T05:53:25.788Z,33.00
2019-02-26T05:55:54.179Z,37.25
2019-02-26T05:58:21.559Z,36.83
2019-02-26T06:00:48.249Z,29.25
2019-02-26T06:03:18.276Z,38.33
2019-02-26T06:05:46.009Z,33.92
2019-02-26T06:08:12.252Z,31.15
2019-02-26T06:10:38.967Z,34.55
2019-02-26T06:13:07.615Z,35.73
2019-02-26T06:15:34.255Z,32.85
2019-02-26T06:18:00.945Z,36.60
2019-02-26T06:20:29.217Z,32.80
2019-02-26T06:22:56.201Z,34.20
2019-02-26T06:25:24.336Z,35.23
2019-02-26T06:27:51.613Z,33.50
2019-02-26T06:30:18.274Z,35.83
2019-02-26T06:32:45.001Z,36.80
2019-02-26T06:35:13.658Z,35.70
2019-02-26T06:37:41.923Z,34.43
2019-02-26T06:40:09.841Z,29.23
2019-02-26T06:42:38.063Z,33.28
2019-02-26T06:45:08.335Z,36.75
2019-02-26T06:47:34.604Z,36.42
2019-02-26T06:50:02.893Z,35.08
2019-02-26T06:52:29.955Z,37.17
2019-02-26T06:55:00.103Z,33.90
2019-02-26T06:57:26.909Z,35.90
2019-02-26T06:59:55.756Z,26.65
2019-02-26T07:02:22.203Z,26.27
2019-02-26T07:04:48.859Z,22.75
2019-02-26T07:07:15.626Z,28.17
2019-02-26T07:09:43.902Z,22.95
2019-02-26T07:12:10.824Z,25.95
2019-02-26T07:14:37.500Z,27.13
2019-02-26T07:17:04.249Z,23.83
2019-02-26T07:19:33.124Z,24.15
2019-02-26T07:21:59.522Z,34.40
2019-02-26T07:24:27.191Z,19.45
2019-02-26T07:26:54.030Z,24.52
2019-02-26T07:29:20.679Z,23.80
2019-02-26T07:31:49.438Z,22.45
2019-02-26T07:34:18.128Z,22.30
2019-02-26T07:36:45.693Z,20.32
2019-02-26T07:39:15.321Z,19.90
2019-02-26T07:41:42.315Z,20.35
2019-02-26T07:44:15.403Z,19.40
2019-02-26T07:46:40.228Z,27.32
2019-02-26T07:49:07.878Z,24.30
2019-02-26T07:51:36.402Z,23.25
2019-02-26T07:54:03.155Z,19.77
2019-02-26T07:56:32.106Z,26.30
2019-02-26T07:59:01.382Z,28.75
2019-02-26T08:01:27.075Z,24.55
2019-02-26T08:03:53.756Z,22.77
2019-02-26T08:06:20.530Z,18.15
2019-02-26T08:08:48.937Z,23.45
2019-02-26T08:11:15.836Z,21.60
2019-02-26T08:13:42.552Z,20.23
2019-02-26T08:16:09.419Z,20.35
2019-02-26T08:18:36.079Z,29.27
2019-02-26T08:21:04.876Z,26.73
2019-02-26T08:23:31.428Z,26.87
2019-02-26T08:26:00.468Z,23.55
2019-02-26T08:28:26.806Z,19.73
2019-02-26T08:30:55.208Z,19.77
2019-02-26T08:33:22.048Z,17.05
2019-02-26T08:35:48.726Z,17.98
2019-02-26T08:38:16.332Z,16.32
2019-02-26T08:40:43.094Z,21.02
2019-02-26T08:43:09.827Z,18.73
2019-02-26T08:45:36.490Z,17.82
2019-02-26T08:48:03.141Z,22.90
2019-02-26T08:50:33.019Z,19.00
2019-02-26T08:52:58.700Z,16.55
2019-02-26T08:55:25.713Z,18.57
2019-02-26T08:57:54.028Z,24.50
2019-02-26T09:00:21.117Z,23.38
2019-02-26T09:02:50.603Z,19.30
2019-02-26T09:05:16.525Z,18.52
2019-02-26T09:07:45.163Z,22.10
2019-02-26T09:10:13.150Z,23.12
2019-02-26T09:12:41.925Z,21.20
2019-02-26T09:15:11.321Z,25.32
2019-02-26T09:17:39.753Z,20.72
2019-02-26T09:20:12.187Z,24.45
2019-02-26T09:22:40.583Z,21.37
2019-02-26T09:25:06.876Z,21.68
2019-02-26T09:27:34.480Z,23.50
2019-02-26T09:30:03.458Z,20.25
2019-02-26T09:32:32.359Z,20.05
2019-02-26T09:35:01.471Z,23.80
2019-02-26T09:37:28.112Z,29.72
2019-02-26T09:39:56.797Z,20.45
2019-02-26T09:42:25.495Z,19.20
2019-02-26T09:44:53.036Z,21.15
2019-02-26T09:47:30.379Z,20.97
2019-02-26T09:49:58.380Z,23.90
2019-02-26T09:52:27.563Z,18.02
2019-02-26T09:54:55.200Z,26.42
2019-02-26T09:57:23.331Z,17.30
2019-02-26T09:59:52.230Z,22.95
2019-02-26T10:02:21.811Z,22.07
2019-02-26T10:04:49.608Z,19.05
2019-02-26T10:07:16.738Z,16.37
2019-02-26T10:09:46.594Z,16.95
2019-02-26T10:12:13.509Z,17.85
2019-02-26T10:14:40.555Z,16.23
2019-02-26T10:17:09.077Z,15.72
2019-02-26T10:19:38.183Z,15.10
2019-02-26T10:22:07.153Z,19.92
2019-02-26T10:24:34.868Z,13.53
2019-02-26T10:27:03.696Z,18.48
2019-02-26T10:29:32.327Z,16.35
2019-02-26T10:31:58.923Z,13.58
2019-02-26T10:34:30.104Z,16.60
2019-02-26T10:36:54.501Z,11.08
2019-02-26T10:39:23.196Z,13.25
2019-02-26T10:41:49.796Z,14.38
2019-02-26T10:44:16.504Z,13.45
2019-02-26T10:46:44.507Z,13.28
2019-02-26T10:49:12.467Z,16.37
2019-02-26T10:51:42.419Z,15.40
2019-02-26T10:54:11.754Z,16.42
2019-02-26T10:56:39.366Z,12.85
2019-02-26T10:59:06.666Z,12.50
2019-02-26T11:01:33.914Z,14.45
2019-02-26T11:04:00.841Z,10.75
2019-02-26T11:06:27.625Z,13.28
2019-02-26T11:08:55.851Z,16.23
2019-02-26T11:11:22.974Z,15.15
2019-02-26T11:13:51.943Z,15.60
2019-02-26T11:16:24.833Z,14.38
2019-02-26T11:18:47.705Z,13.95
2019-02-26T11:21:16.813Z,12.53
2019-02-26T11:23:44.519Z,12.80
2019-02-26T11:26:13.150Z,11.60
2019-02-26T11:28:42.890Z,10.15
2019-02-26T11:31:11.547Z,12.35
2019-02-26T11:33:38.014Z,13.75
2019-02-26T11:36:05.498Z,18.23
2019-02-26T11:38:34.729Z,17.05
2019-02-26T11:41:02.228Z,16.45
2019-02-26T11:43:29.059Z,16.30
2019-02-26T11:45:56.677Z,15.53
2019-02-26T11:48:25.926Z,13.55
2019-02-26T11:50:53.036Z,15.95
2019-02-26T11:53:19.787Z,15.08
2019-02-26T11:55:46.512Z,16.55
2019-02-26T11:58:16.055Z,16.70
2019-02-26T12:00:48.082Z,14.38
2019-02-26T12:03:14.766Z,16.07
2019-02-26T12:05:41.910Z,16.37
2019-02-26T12:08:08.784Z,14.55
2019-02-26T12:10:37.826Z,13.83
2019-02-26T12:13:04.331Z,12.23
2019-02-26T12:15:33.460Z,10.68
2019-02-26T12:17:59.572Z,12.47
2019-02-26T12:20:26.243Z,14.40
2019-02-26T12:22:55.218Z,14.38
2019-02-26T12:25:21.575Z,13.30
2019-02-26T12:27:48.327Z,13.78
2019-02-26T12:30:18.140Z,15.08
2019-02-26T12:35:17.717Z,18.02
2019-02-26T12:37:43.358Z,16.48
2019-02-26T12:40:12.987Z,16.15
2019-02-26T12:42:39.259Z,14.18
2019-02-26T12:45:09.909Z,18.75
2019-02-26T12:47:35.681Z,15.93
2019-02-26T12:50:05.221Z,15.08
2019-02-26T12:52:31.053Z,13.78
2019-02-26T12:55:00.123Z,16.17
2019-02-26T12:57:28.811Z,14.07
2019-02-26T12:59:54.876Z,15.28
2019-02-26T13:02:24.621Z,13.38
2019-02-26T13:04:51.595Z,18.82
2019-02-26T13:07:18.912Z,13.90
2019-02-26T13:09:50.457Z,14.13
2019-02-26T13:12:19.855Z,14.07
2019-02-26T13:14:43.594Z,15.20
2019-02-26T13:17:13.990Z,13.62
2019-02-26T13:19:41.470Z,12.10
2019-02-26T13:22:09.771Z,10.13
2019-02-26T13:24:36.982Z,12.95
2019-02-26T13:27:03.652Z,9.23
2019-02-26T13:29:31.339Z,7.45
2019-02-26T13:31:59.965Z,8.03
2019-02-26T13:34:26.898Z,8.58
2019-02-26T13:36:56.645Z,6.72
2019-02-26T13:39:29.655Z,7.95
2019-02-26T13:41:54.332Z,10.40
2019-02-26T13:44:19.486Z,9.68
2019-02-26T13:46:46.168Z,7.83
2019-02-26T13:49:12.846Z,8.43
2019-02-26T13:51:39.557Z,8.60
2019-02-26T13:54:06.275Z,9.43
2019-02-26T13:56:33.030Z,8.43
2019-02-26T13:58:59.698Z,8.40
2019-02-26T14:01:26.508Z,9.05
2019-02-26T14:03:53.154Z,7.40
2019-02-26T14:06:19.913Z,8.73
2019-02-26T14:08:46.583Z,9.30
2019-02-26T14:11:13.298Z,8.45
2019-02-26T14:13:40.008Z,7.40
2019-02-26T14:16:06.774Z,7.53
2019-02-26T14:18:33.432Z,8.63
2019-02-26T14:21:00.148Z,8.23
2019-02-26T14:23:27.009Z,11.95
2019-02-26T14:25:53.765Z,7.60
2019-02-26T14:28:20.437Z,6.12
2019-02-26T14:30:47.241Z,8.53
2019-02-26T14:33:13.951Z,9.10
2019-02-26T14:35:40.674Z,8.43
2019-02-26T14:38:07.375Z,7.70
2019-02-26T14:40:34.101Z,9.30
2019-02-26T14:43:00.756Z,6.37
2019-02-26T14:45:27.488Z,7.90
2019-02-26T14:47:54.194Z,12.07
2019-02-26T14:50:20.850Z,7.17
2019-02-26T14:52:47.539Z,7.85
2019-02-26T14:55:14.241Z,10.63
2019-02-26T14:57:40.935Z,7.72
2019-02-26T15:00:11.728Z,13.10
2019-02-26T15:02:38.389Z,7.53
2019-02-26T15:05:05.081Z,9.38
2019-02-26T15:07:31.920Z,9.03
2019-02-26T15:09:59.356Z,11.05
2019-02-26T15:12:26.181Z,7.30
2019-02-26T15:14:53.238Z,8.05
2019-02-26T15:17:20.429Z,6.58
2019-02-26T15:19:51.401Z,7.17
2019-02-26T15:22:15.843Z,7.30
2019-02-26T15:24:42.955Z,7.62
2019-02-26T15:27:10.820Z,6.05
2019-02-26T15:29:59.678Z,8.28
2019-02-26T15:32:26.635Z,13.55
2019-02-26T15:34:53.606Z,13.15
2019-02-26T15:37:20.286Z,14.03
2019-02-26T15:39:46.958Z,14.23
2019-02-26T15:42:14.043Z,17.50
2019-02-26T15:44:40.714Z,14.58
2019-02-26T15:47:09.214Z,16.17
2019-02-26T15:49:37.771Z,17.55
2019-02-26T15:52:04.828Z,18.35
2019-02-26T15:54:31.801Z,17.25
2019-02-26T15:57:00.482Z,17.35
2019-02-26T15:59:30.002Z,16.10
2019-02-26T16:01:56.958Z,16.97
2019-02-26T16:04:24.425Z,15.68
2019-02-26T16:06:51.144Z,12.70
2019-02-26T16:09:17.794Z,15.43
2019-02-26T16:11:44.606Z,17.42
2019-02-26T16:14:11.245Z,18.07
2019-02-26T16:16:38.062Z,13.58
2019-02-26T16:19:04.964Z,15.15
2019-02-26T16:21:31.801Z,15.63
2019-02-26T16:23:58.624Z,14.55
2019-02-26T16:26:25.508Z,15.68
2019-02-26T16:28:52.145Z,14.35
2019-02-26T16:31:18.850Z,14.98
2019-02-26T16:33:46.721Z,20.68
2019-02-26T16:36:14.189Z,15.58
2019-02-26T16:38:40.866Z,17.95
2019-02-26T16:41:07.560Z,18.62
2019-02-26T16:43:34.189Z,16.23
2019-02-26T16:46:00.940Z,21.07
2019-02-26T16:48:27.602Z,17.37
2019-02-26T16:50:54.355Z,14.53
2019-02-26T16:53:20.989Z,17.45
2019-02-26T16:55:49.069Z,15.58
2019-02-26T16:58:16.329Z,15.83
2019-02-26T17:00:43.081Z,18.35
2019-02-26T17:03:09.730Z,15.25
2019-02-26T17:05:36.600Z,18.73
2019-02-26T17:08:03.248Z,16.00
2019-02-26T17:10:30.639Z,19.77
2019-02-26T17:13:01.850Z,15.30
2019-02-26T17:15:27.142Z,19.32
2019-02-26T17:17:53.998Z,16.42
2019-02-26T17:20:22.529Z,17.95
2019-02-26T17:22:49.537Z,14.10
2019-02-26T17:25:16.371Z,17.92
2019-02-26T17:27:43.042Z,17.55
2019-02-26T17:30:10.304Z,16.10
2019-02-26T17:32:38.274Z,17.40
2019-02-26T17:35:06.344Z,18.23
2019-02-26T17:37:32.983Z,16.07
2019-02-26T17:40:02.734Z,16.65
2019-02-26T17:42:28.398Z,16.50
2019-02-26T17:44:55.051Z,22.93
2019-02-26T17:47:21.895Z,15.32
2019-02-26T17:49:48.775Z,19.15
2019-02-26T17:52:15.500Z,15.43
2019-02-26T17:54:42.466Z,20.15
2019-02-26T17:57:09.194Z,19.17
2019-02-26T17:59:37.432Z,18.15
2019-02-26T18:02:04.195Z,18.23
2019-02-26T18:04:30.864Z,19.75
2019-02-26T18:06:57.860Z,16.67
2019-02-26T18:09:26.106Z,19.73
2019-02-26T18:11:52.844Z,19.82
2019-02-26T18:14:19.497Z,22.70
2019-02-26T18:17:26.141Z,20.40
2019-02-26T18:19:52.858Z,18.48
2019-02-26T18:22:21.642Z,19.07
2019-02-26T18:24:48.206Z,19.12
2019-02-26T18:27:14.856Z,20.25
2019-02-26T18:29:43.871Z,18.17
2019-02-26T18:32:11.259Z,20.85
2019-02-26T18:34:38.878Z,17.25
2019-02-26T18:37:06.663Z,19.23
2019-02-26T18:39:33.349Z,20.85
2019-02-26T18:41:59.979Z,18.48
2019-02-26T18:44:27.188Z,18.67
2019-02-26T18:46:53.830Z,22.35
2019-02-26T18:49:21.842Z,23.73
2019-02-26T18:51:49.844Z,25.43
2019-02-26T18:54:17.714Z,25.12
2019-02-26T18:56:45.092Z,17.87
2019-02-26T18:59:11.850Z,22.20
2019-02-26T19:01:39.776Z,23.20
2019-02-26T19:04:06.466Z,29.25
2019-02-26T19:06:33.159Z,27.37
2019-02-26T19:09:00.068Z,22.70
2019-02-26T19:11:26.960Z,29.90
2019-02-26T19:13:53.857Z,31.12
2019-02-26T19:16:21.238Z,42.73
2019-02-26T19:18:48.175Z,33.40
2019-02-26T19:22:26.510Z,31.90
2019-02-26T19:24:53.015Z,33.20
2019-02-26T19:27:20.118Z,37.17
2019-02-26T19:29:47.153Z,35.08
2019-02-26T19:32:15.730Z,33.55
2019-02-26T19:34:42.473Z,30.92
2019-02-26T19:37:09.124Z,37.75
2019-02-26T19:39:35.991Z,38.33
2019-02-26T19:42:02.770Z,35.15
2019-02-26T19:44:30.518Z,34.15
2019-02-26T19:46:57.178Z,31.73
2019-02-26T19:49:24.091Z,33.98
2019-02-26T19:51:50.735Z,31.27
2019-02-26T19:54:17.467Z,32.58
2019-02-26T19:56:44.247Z,31.30
2019-02-26T19:59:13.518Z,32.40
2019-02-26T20:01:41.665Z,45.83
2019-02-26T20:04:08.431Z,47.40
2019-02-26T20:06:35.064Z,31.42
2019-02-26T20:09:05.851Z,28.77
2019-02-26T20:11:30.828Z,30.48
2019-02-26T20:14:04.568Z,31.90
2019-02-26T20:16:27.784Z,36.23
2019-02-26T20:18:56.756Z,28.07
2019-02-26T20:21:23.322Z,27.65
2019-02-26T20:23:50.081Z,27.80
2019-02-26T20:26:17.023Z,36.08
2019-02-26T20:28:43.799Z,60.55
2019-02-26T20:31:10.627Z,42.25
2019-02-26T20:33:37.500Z,37.00
2019-02-26T20:36:04.204Z,34.65
2019-02-26T20:38:35.055Z,37.30
2019-02-26T20:40:59.642Z,29.77
2019-02-26T20:43:26.319Z,29.57
2019-02-26T20:45:53.028Z,33.78
2019-02-26T20:48:19.680Z,29.55
2019-02-26T20:50:46.458Z,31.12
2019-02-26T20:53:13.149Z,29.30
2019-02-26T20:55:40.008Z,28.85
2019-02-26T20:58:06.708Z,34.18
2019-02-26T21:00:33.371Z,31.33
2019-02-26T21:03:00.204Z,43.45
2019-02-26T21:05:27.112Z,36.38
2019-02-26T21:07:58.100Z,40.50
2019-02-26T21:10:22.512Z,41.18
2019-02-26T21:12:49.143Z,39.78
2019-02-26T21:15:16.623Z,44.35
2019-02-26T21:17:43.610Z,31.25
2019-02-26T21:20:11.216Z,35.10
2019-02-26T21:22:37.903Z,35.50
2019-02-26T21:25:04.912Z,34.43
2019-02-26T21:27:31.564Z,38.67
2019-02-26T21:29:58.199Z,31.82
2019-02-26T21:32:25.750Z,40.63
2019-02-26T21:34:52.915Z,38.90
2019-02-26T21:37:19.570Z,35.50
2019-02-26T21:39:46.231Z,39.15
2019-02-26T21:42:13.049Z,34.35
2019-02-26T21:44:41.869Z,32.00
2019-02-26T21:47:08.383Z,34.63
2019-02-26T21:49:35.007Z,36.05
2019-02-26T21:52:01.648Z,30.85
2019-02-26T21:54:32.294Z,36.17
2019-02-26T21:56:59.122Z,33.98
2019-02-26T21:59:25.875Z,31.07
2019-02-26T22:01:52.709Z,28.40
2019-02-26T22:04:19.335Z,37.13
2019-02-26T22:06:47.792Z,29.85
2019-02-26T22:09:14.488Z,33.75
2019-02-26T22:11:41.121Z,33.85
2019-02-26T22:14:07.765Z,34.03
2019-02-26T22:16:34.429Z,30.95
2019-02-26T22:19:01.067Z,33.33
2019-02-26T22:21:27.699Z,37.75
2019-02-26T22:23:54.388Z,36.10
2019-02-26T22:26:21.031Z,34.10
2019-02-26T22:28:47.665Z,32.10
2019-02-26T22:31:14.340Z,29.67
2019-02-26T22:33:43.179Z,31.15
2019-02-26T22:36:09.610Z,29.70
2019-02-26T22:38:36.308Z,36.33
2019-02-26T22:41:03.058Z,38.48
2019-02-26T22:43:29.855Z,38.20
2019-02-26T22:46:00.760Z,33.73
2019-02-26T22:48:25.086Z,36.30
2019-02-26T22:50:51.726Z,36.63
2019-02-26T22:53:18.460Z,31.97
2019-02-26T22:55:49.633Z,32.65
2019-02-26T22:58:13.772Z,34.60
2019-02-26T23:01:11.640Z,37.42
2019-02-26T23:03:38.997Z,28.95
2019-02-26T23:06:05.612Z,33.50
2019-02-26T23:08:32.879Z,34.58
2019-02-26T23:10:59.526Z,29.60
2019-02-26T23:13:26.277Z,36.90
2019-02-26T23:15:52.922Z,31.15
2019-02-26T23:18:19.656Z,36.53
2019-02-26T23:20:46.297Z,30.32
2019-02-26T23:23:12.938Z,34.85
2019-02-26T23:25:39.611Z,36.95
2019-02-26T23:28:06.267Z,38.42
2019-02-26T23:30:32.979Z,36.70
2019-02-26T23:32:59.619Z,32.33
2019-02-26T23:35:26.341Z,31.33
2019-02-26T23:37:53.043Z,40.95
2019-02-26T23:40:19.802Z,30.17
2019-02-26T23:42:46.447Z,35.60
2019-02-26T23:45:13.174Z,35.08
2019-02-26T23:47:39.803Z,36.73
2019-02-26T23:50:06.580Z,33.33
2019-02-26T23:52:33.207Z,29.98
2019-02-26T23:54:59.926Z,33.90
2019-02-26T23:57:26.602Z,31.62
2019-02-26T23:59:53.321Z,36.30
